sensor_id;sensor_type;location;lat;lon;timestamp;P1;durP1;ratioP1;P2;durP2;ratioP2
65656;SDS011;57397;50.096;14.404;2023-01-09T00:01:15;6.05;;;3.90;;
65656;SDS011;57397;50.096;14.404;2023-01-09T00:03:43;6.72;;;3.78;;
65656;SDS011;57397;50.096;14.404;2023-01-09T00:06:08;6.60;;;4.05;;
65656;SDS011;57397;50.096;14.404;2023-01-09T00:08:34;7.43;;;3.80;;
65656;SDS011;57397;50.096;14.404;2023-01-09T00:10:59;6.45;;;3.63;;
65656;SDS011;57397;50.096;14.404;2023-01-09T00:13:25;6.65;;;4.13;;
65656;SDS011;57397;50.096;14.404;2023-01-09T00:15:51;6.18;;;3.83;;
65656;SDS011;57397;50.096;14.404;2023-01-09T00:18:17;5.63;;;3.60;;
65656;SDS011;57397;50.096;14.404;2023-01-09T00:20:43;6.45;;;3.83;;
65656;SDS011;57397;50.096;14.404;2023-01-09T00:23:08;6.68;;;3.70;;
65656;SDS011;57397;50.096;14.404;2023-01-09T00:25:34;6.45;;;3.60;;
65656;SDS011;57397;50.096;14.404;2023-01-09T00:27:59;7.45;;;3.83;;
65656;SDS011;57397;50.096;14.404;2023-01-09T00:30:25;5.68;;;3.88;;
65656;SDS011;57397;50.096;14.404;2023-01-09T00:32:52;6.75;;;3.65;;
65656;SDS011;57397;50.096;14.404;2023-01-09T00:35:18;7.28;;;3.83;;
65656;SDS011;57397;50.096;14.404;2023-01-09T00:37:44;6.28;;;3.47;;
65656;SDS011;57397;50.096;14.404;2023-01-09T00:40:09;6.45;;;3.85;;
65656;SDS011;57397;50.096;14.404;2023-01-09T00:42:36;5.07;;;3.50;;
65656;SDS011;57397;50.096;14.404;2023-01-09T00:45:03;5.95;;;3.88;;
65656;SDS011;57397;50.096;14.404;2023-01-09T00:47:39;6.28;;;3.58;;
65656;SDS011;57397;50.096;14.404;2023-01-09T00:50:08;5.78;;;3.53;;
65656;SDS011;57397;50.096;14.404;2023-01-09T00:52:40;5.65;;;3.50;;
65656;SDS011;57397;50.096;14.404;2023-01-09T00:55:06;5.78;;;3.50;;
65656;SDS011;57397;50.096;14.404;2023-01-09T00:57:36;6.72;;;3.80;;
65656;SDS011;57397;50.096;14.404;2023-01-09T01:00:02;5.68;;;3.58;;
65656;SDS011;57397;50.096;14.404;2023-01-09T01:02:28;6.68;;;3.70;;
65656;SDS011;57397;50.096;14.404;2023-01-09T01:04:56;5.82;;;3.45;;
65656;SDS011;57397;50.096;14.404;2023-01-09T01:07:40;5.00;;;3.45;;
65656;SDS011;57397;50.096;14.404;2023-01-09T01:10:11;5.50;;;3.35;;
65656;SDS011;57397;50.096;14.404;2023-01-09T01:12:40;5.57;;;3.40;;
65656;SDS011;57397;50.096;14.404;2023-01-09T01:15:06;5.50;;;3.60;;
65656;SDS011;57397;50.096;14.404;2023-01-09T01:17:33;5.43;;;3.47;;
65656;SDS011;57397;50.096;14.404;2023-01-09T01:19:59;5.80;;;3.60;;
65656;SDS011;57397;50.096;14.404;2023-01-09T01:22:25;6.72;;;3.75;;
65656;SDS011;57397;50.096;14.404;2023-01-09T01:24:50;5.90;;;3.40;;
65656;SDS011;57397;50.096;14.404;2023-01-09T01:27:16;5.75;;;3.88;;
65656;SDS011;57397;50.096;14.404;2023-01-09T01:29:41;5.40;;;3.50;;
65656;SDS011;57397;50.096;14.404;2023-01-09T01:32:07;5.82;;;3.72;;
65656;SDS011;57397;50.096;14.404;2023-01-09T01:34:33;5.90;;;3.47;;
65656;SDS011;57397;50.096;14.404;2023-01-09T01:37:01;5.75;;;3.88;;
65656;SDS011;57397;50.096;14.404;2023-01-09T01:39:27;6.32;;;3.95;;
65656;SDS011;57397;50.096;14.404;2023-01-09T01:41:53;6.03;;;3.70;;
65656;SDS011;57397;50.096;14.404;2023-01-09T01:47:22;5.75;;;3.88;;
65656;SDS011;57397;50.096;14.404;2023-01-09T01:49:51;5.15;;;3.28;;
65656;SDS011;57397;50.096;14.404;2023-01-09T01:52:17;6.15;;;3.53;;
65656;SDS011;57397;50.096;14.404;2023-01-09T01:54:44;4.95;;;3.15;;
65656;SDS011;57397;50.096;14.404;2023-01-09T01:57:10;6.47;;;3.60;;
65656;SDS011;57397;50.096;14.404;2023-01-09T01:59:36;5.57;;;3.80;;
65656;SDS011;57397;50.096;14.404;2023-01-09T02:02:04;6.00;;;3.55;;
65656;SDS011;57397;50.096;14.404;2023-01-09T02:04:30;5.82;;;3.38;;
65656;SDS011;57397;50.096;14.404;2023-01-09T02:06:57;5.10;;;3.33;;
65656;SDS011;57397;50.096;14.404;2023-01-09T02:09:25;5.82;;;3.60;;
65656;SDS011;57397;50.096;14.404;2023-01-09T02:11:53;5.40;;;3.22;;
65656;SDS011;57397;50.096;14.404;2023-01-09T02:14:21;6.18;;;3.78;;
65656;SDS011;57397;50.096;14.404;2023-01-09T02:25:04;6.55;;;3.13;;
65656;SDS011;57397;50.096;14.404;2023-01-09T02:33:04;5.15;;;3.40;;
65656;SDS011;57397;50.096;14.404;2023-01-09T02:35:48;4.95;;;3.15;;
65656;SDS011;57397;50.096;14.404;2023-01-09T02:43:19;4.78;;;3.05;;
65656;SDS011;57397;50.096;14.404;2023-01-09T02:45:45;5.70;;;3.50;;
65656;SDS011;57397;50.096;14.404;2023-01-09T02:48:11;4.72;;;3.33;;
65656;SDS011;57397;50.096;14.404;2023-01-09T02:56:08;5.50;;;3.42;;
65656;SDS011;57397;50.096;14.404;2023-01-09T03:09:16;4.57;;;3.17;;
65656;SDS011;57397;50.096;14.404;2023-01-09T03:11:47;5.50;;;3.47;;
65656;SDS011;57397;50.096;14.404;2023-01-09T03:14:15;4.93;;;2.97;;
65656;SDS011;57397;50.096;14.404;2023-01-09T03:16:43;4.90;;;3.15;;
65656;SDS011;57397;50.096;14.404;2023-01-09T03:19:15;4.90;;;3.00;;
65656;SDS011;57397;50.096;14.404;2023-01-09T03:21:43;5.07;;;3.10;;
65656;SDS011;57397;50.096;14.404;2023-01-09T03:24:09;5.03;;;3.30;;
65656;SDS011;57397;50.096;14.404;2023-01-09T03:26:35;5.35;;;2.97;;
65656;SDS011;57397;50.096;14.404;2023-01-09T03:29:00;4.65;;;2.90;;
65656;SDS011;57397;50.096;14.404;2023-01-09T03:31:26;5.18;;;2.85;;
65656;SDS011;57397;50.096;14.404;2023-01-09T03:33:52;5.10;;;2.95;;
65656;SDS011;57397;50.096;14.404;2023-01-09T03:36:18;5.57;;;2.97;;
65656;SDS011;57397;50.096;14.404;2023-01-09T03:38:44;5.03;;;3.10;;
65656;SDS011;57397;50.096;14.404;2023-01-09T03:41:10;5.20;;;3.20;;
65656;SDS011;57397;50.096;14.404;2023-01-09T03:43:35;4.68;;;3.00;;
65656;SDS011;57397;50.096;14.404;2023-01-09T03:46:01;4.55;;;2.75;;
65656;SDS011;57397;50.096;14.404;2023-01-09T03:48:26;5.47;;;3.22;;
65656;SDS011;57397;50.096;14.404;2023-01-09T03:50:52;4.75;;;3.22;;
65656;SDS011;57397;50.096;14.404;2023-01-09T03:53:19;4.82;;;2.85;;
65656;SDS011;57397;50.096;14.404;2023-01-09T03:55:45;5.28;;;3.20;;
65656;SDS011;57397;50.096;14.404;2023-01-09T03:58:12;4.85;;;2.97;;
65656;SDS011;57397;50.096;14.404;2023-01-09T04:00:38;4.65;;;2.85;;
65656;SDS011;57397;50.096;14.404;2023-01-09T04:03:04;4.45;;;3.10;;
65656;SDS011;57397;50.096;14.404;2023-01-09T04:05:30;5.43;;;2.92;;
65656;SDS011;57397;50.096;14.404;2023-01-09T04:07:56;5.25;;;3.22;;
65656;SDS011;57397;50.096;14.404;2023-01-09T04:10:21;4.25;;;3.03;;
65656;SDS011;57397;50.096;14.404;2023-01-09T04:12:47;4.75;;;3.13;;
65656;SDS011;57397;50.096;14.404;2023-01-09T04:15:12;4.95;;;3.28;;
65656;SDS011;57397;50.096;14.404;2023-01-09T04:17:38;4.85;;;3.13;;
65656;SDS011;57397;50.096;14.404;2023-01-09T04:20:03;4.25;;;2.95;;
65656;SDS011;57397;50.096;14.404;2023-01-09T04:22:29;4.32;;;2.70;;
65656;SDS011;57397;50.096;14.404;2023-01-09T04:24:55;4.63;;;3.03;;
65656;SDS011;57397;50.096;14.404;2023-01-09T04:27:21;4.65;;;2.90;;
65656;SDS011;57397;50.096;14.404;2023-01-09T04:29:46;5.07;;;3.08;;
65656;SDS011;57397;50.096;14.404;2023-01-09T04:32:12;7.65;;;3.45;;
65656;SDS011;57397;50.096;14.404;2023-01-09T04:34:37;4.53;;;2.90;;
65656;SDS011;57397;50.096;14.404;2023-01-09T04:37:03;5.00;;;3.17;;
65656;SDS011;57397;50.096;14.404;2023-01-09T04:39:28;5.18;;;3.22;;
65656;SDS011;57397;50.096;14.404;2023-01-09T04:41:54;4.13;;;2.88;;
65656;SDS011;57397;50.096;14.404;2023-01-09T04:44:20;4.45;;;2.97;;
65656;SDS011;57397;50.096;14.404;2023-01-09T04:46:47;5.07;;;3.00;;
65656;SDS011;57397;50.096;14.404;2023-01-09T04:49:13;5.00;;;2.92;;
65656;SDS011;57397;50.096;14.404;2023-01-09T04:51:39;4.28;;;2.75;;
65656;SDS011;57397;50.096;14.404;2023-01-09T04:54:04;4.38;;;2.60;;
65656;SDS011;57397;50.096;14.404;2023-01-09T04:56:30;3.85;;;2.60;;
65656;SDS011;57397;50.096;14.404;2023-01-09T04:58:56;4.50;;;2.97;;
65656;SDS011;57397;50.096;14.404;2023-01-09T05:01:22;4.30;;;2.80;;
65656;SDS011;57397;50.096;14.404;2023-01-09T05:03:47;4.13;;;2.72;;
65656;SDS011;57397;50.096;14.404;2023-01-09T05:06:13;4.43;;;2.80;;
65656;SDS011;57397;50.096;14.404;2023-01-09T05:08:39;4.82;;;2.95;;
65656;SDS011;57397;50.096;14.404;2023-01-09T05:11:04;5.25;;;3.00;;
65656;SDS011;57397;50.096;14.404;2023-01-09T05:13:30;4.03;;;2.67;;
65656;SDS011;57397;50.096;14.404;2023-01-09T05:15:55;5.15;;;2.75;;
65656;SDS011;57397;50.096;14.404;2023-01-09T05:18:21;3.90;;;2.63;;
65656;SDS011;57397;50.096;14.404;2023-01-09T05:20:46;4.38;;;2.95;;
65656;SDS011;57397;50.096;14.404;2023-01-09T05:23:12;4.47;;;2.63;;
65656;SDS011;57397;50.096;14.404;2023-01-09T05:25:37;4.18;;;2.83;;
65656;SDS011;57397;50.096;14.404;2023-01-09T05:28:03;3.72;;;2.53;;
65656;SDS011;57397;50.096;14.404;2023-01-09T05:30:29;4.07;;;2.58;;
65656;SDS011;57397;50.096;14.404;2023-01-09T05:32:54;5.78;;;2.97;;
65656;SDS011;57397;50.096;14.404;2023-01-09T05:35:20;4.75;;;2.83;;
65656;SDS011;57397;50.096;14.404;2023-01-09T05:37:45;4.40;;;2.70;;
65656;SDS011;57397;50.096;14.404;2023-01-09T05:40:11;4.78;;;2.92;;
65656;SDS011;57397;50.096;14.404;2023-01-09T05:42:37;3.97;;;2.90;;
65656;SDS011;57397;50.096;14.404;2023-01-09T05:45:03;4.28;;;2.65;;
65656;SDS011;57397;50.096;14.404;2023-01-09T05:47:30;4.35;;;2.83;;
65656;SDS011;57397;50.096;14.404;2023-01-09T05:49:55;4.85;;;2.90;;
65656;SDS011;57397;50.096;14.404;2023-01-09T05:52:21;4.90;;;2.80;;
65656;SDS011;57397;50.096;14.404;2023-01-09T05:54:47;4.60;;;2.55;;
65656;SDS011;57397;50.096;14.404;2023-01-09T05:57:13;4.18;;;2.78;;
65656;SDS011;57397;50.096;14.404;2023-01-09T05:59:38;4.95;;;2.70;;
65656;SDS011;57397;50.096;14.404;2023-01-09T06:02:04;3.90;;;2.70;;
65656;SDS011;57397;50.096;14.404;2023-01-09T06:04:30;4.00;;;2.80;;
65656;SDS011;57397;50.096;14.404;2023-01-09T06:06:55;4.35;;;2.88;;
65656;SDS011;57397;50.096;14.404;2023-01-09T06:09:21;4.07;;;2.65;;
65656;SDS011;57397;50.096;14.404;2023-01-09T06:11:46;4.85;;;3.03;;
65656;SDS011;57397;50.096;14.404;2023-01-09T06:14:12;3.88;;;2.55;;
65656;SDS011;57397;50.096;14.404;2023-01-09T06:16:38;4.10;;;2.83;;
65656;SDS011;57397;50.096;14.404;2023-01-09T06:19:03;3.85;;;2.53;;
65656;SDS011;57397;50.096;14.404;2023-01-09T06:21:30;4.20;;;2.80;;
65656;SDS011;57397;50.096;14.404;2023-01-09T06:23:57;3.53;;;2.45;;
65656;SDS011;57397;50.096;14.404;2023-01-09T06:26:23;5.13;;;2.83;;
65656;SDS011;57397;50.096;14.404;2023-01-09T06:28:49;5.38;;;2.75;;
65656;SDS011;57397;50.096;14.404;2023-01-09T06:31:15;3.80;;;2.50;;
65656;SDS011;57397;50.096;14.404;2023-01-09T06:33:41;4.28;;;2.70;;
65656;SDS011;57397;50.096;14.404;2023-01-09T06:36:06;4.03;;;2.40;;
65656;SDS011;57397;50.096;14.404;2023-01-09T06:38:32;4.25;;;2.70;;
65656;SDS011;57397;50.096;14.404;2023-01-09T06:40:58;4.32;;;2.72;;
65656;SDS011;57397;50.096;14.404;2023-01-09T06:43:23;5.25;;;3.10;;
65656;SDS011;57397;50.096;14.404;2023-01-09T06:45:49;4.50;;;2.95;;
65656;SDS011;57397;50.096;14.404;2023-01-09T06:48:14;4.53;;;2.80;;
65656;SDS011;57397;50.096;14.404;2023-01-09T06:50:40;4.57;;;3.15;;
65656;SDS011;57397;50.096;14.404;2023-01-09T06:53:05;4.35;;;3.13;;
65656;SDS011;57397;50.096;14.404;2023-01-09T06:55:34;5.20;;;2.85;;
65656;SDS011;57397;50.096;14.404;2023-01-09T06:57:59;5.28;;;3.00;;
65656;SDS011;57397;50.096;14.404;2023-01-09T07:00:25;4.45;;;2.80;;
65656;SDS011;57397;50.096;14.404;2023-01-09T07:02:51;4.45;;;2.97;;
65656;SDS011;57397;50.096;14.404;2023-01-09T07:05:16;4.70;;;3.00;;
65656;SDS011;57397;50.096;14.404;2023-01-09T07:07:42;4.53;;;2.85;;
65656;SDS011;57397;50.096;14.404;2023-01-09T07:10:08;5.03;;;2.90;;
65656;SDS011;57397;50.096;14.404;2023-01-09T07:12:34;4.55;;;3.10;;
65656;SDS011;57397;50.096;14.404;2023-01-09T07:15:00;4.80;;;2.90;;
65656;SDS011;57397;50.096;14.404;2023-01-09T07:17:25;4.40;;;2.85;;
65656;SDS011;57397;50.096;14.404;2023-01-09T07:19:51;5.13;;;3.30;;
65656;SDS011;57397;50.096;14.404;2023-01-09T07:22:16;4.78;;;2.95;;
65656;SDS011;57397;50.096;14.404;2023-01-09T07:24:43;5.43;;;3.40;;
65656;SDS011;57397;50.096;14.404;2023-01-09T07:27:08;6.03;;;2.85;;
65656;SDS011;57397;50.096;14.404;2023-01-09T07:29:34;4.22;;;2.90;;
65656;SDS011;57397;50.096;14.404;2023-01-09T07:32:01;4.07;;;2.70;;
65656;SDS011;57397;50.096;14.404;2023-01-09T07:34:27;5.30;;;3.03;;
65656;SDS011;57397;50.096;14.404;2023-01-09T07:36:52;4.65;;;3.05;;
65656;SDS011;57397;50.096;14.404;2023-01-09T07:39:18;3.58;;;2.67;;
65656;SDS011;57397;50.096;14.404;2023-01-09T07:41:43;4.32;;;2.85;;
65656;SDS011;57397;50.096;14.404;2023-01-09T07:44:09;4.93;;;3.30;;
65656;SDS011;57397;50.096;14.404;2023-01-09T07:46:35;5.80;;;3.40;;
65656;SDS011;57397;50.096;14.404;2023-01-09T07:49:01;4.38;;;3.13;;
65656;SDS011;57397;50.096;14.404;2023-01-09T07:51:26;4.75;;;3.22;;
65656;SDS011;57397;50.096;14.404;2023-01-09T07:53:52;6.10;;;3.33;;
65656;SDS011;57397;50.096;14.404;2023-01-09T07:56:18;4.80;;;3.30;;
65656;SDS011;57397;50.096;14.404;2023-01-09T07:58:43;5.82;;;3.13;;
65656;SDS011;57397;50.096;14.404;2023-01-09T08:01:09;5.88;;;3.38;;
65656;SDS011;57397;50.096;14.404;2023-01-09T08:03:34;5.10;;;3.53;;
65656;SDS011;57397;50.096;14.404;2023-01-09T08:06:00;5.13;;;3.22;;
65656;SDS011;57397;50.096;14.404;2023-01-09T08:08:26;5.38;;;3.45;;
65656;SDS011;57397;50.096;14.404;2023-01-09T08:10:51;4.63;;;3.15;;
65656;SDS011;57397;50.096;14.404;2023-01-09T08:13:17;5.15;;;3.22;;
65656;SDS011;57397;50.096;14.404;2023-01-09T08:15:42;5.97;;;3.38;;
65656;SDS011;57397;50.096;14.404;2023-01-09T08:18:08;5.93;;;3.28;;
65656;SDS011;57397;50.096;14.404;2023-01-09T08:20:33;5.00;;;3.30;;
65656;SDS011;57397;50.096;14.404;2023-01-09T08:22:59;6.30;;;3.85;;
65656;SDS011;57397;50.096;14.404;2023-01-09T08:25:24;5.22;;;3.42;;
65656;SDS011;57397;50.096;14.404;2023-01-09T08:27:50;5.68;;;3.17;;
65656;SDS011;57397;50.096;14.404;2023-01-09T08:30:16;5.05;;;3.53;;
65656;SDS011;57397;50.096;14.404;2023-01-09T08:32:42;5.40;;;3.65;;
65656;SDS011;57397;50.096;14.404;2023-01-09T08:35:08;5.80;;;3.50;;
65656;SDS011;57397;50.096;14.404;2023-01-09T08:37:34;6.15;;;3.20;;
65656;SDS011;57397;50.096;14.404;2023-01-09T08:40:00;4.63;;;3.25;;
65656;SDS011;57397;50.096;14.404;2023-01-09T08:42:26;4.97;;;3.58;;
65656;SDS011;57397;50.096;14.404;2023-01-09T08:45:10;5.30;;;3.50;;
65656;SDS011;57397;50.096;14.404;2023-01-09T08:50:20;5.25;;;3.08;;
65656;SDS011;57397;50.096;14.404;2023-01-09T08:52:46;4.97;;;3.20;;
65656;SDS011;57397;50.096;14.404;2023-01-09T08:55:15;4.45;;;3.20;;
65656;SDS011;57397;50.096;14.404;2023-01-09T08:57:47;5.65;;;3.70;;
65656;SDS011;57397;50.096;14.404;2023-01-09T09:00:14;5.13;;;3.53;;
65656;SDS011;57397;50.096;14.404;2023-01-09T09:02:40;4.00;;;3.10;;
65656;SDS011;57397;50.096;14.404;2023-01-09T09:05:06;4.30;;;3.10;;
65656;SDS011;57397;50.096;14.404;2023-01-09T09:07:32;4.95;;;3.25;;
65656;SDS011;57397;50.096;14.404;2023-01-09T09:09:57;5.57;;;3.47;;
65656;SDS011;57397;50.096;14.404;2023-01-09T09:12:23;4.15;;;3.05;;
65656;SDS011;57397;50.096;14.404;2023-01-09T09:14:48;5.28;;;3.60;;
65656;SDS011;57397;50.096;14.404;2023-01-09T09:17:32;4.63;;;3.45;;
65656;SDS011;57397;50.096;14.404;2023-01-09T09:19:58;4.07;;;3.03;;
65656;SDS011;57397;50.096;14.404;2023-01-09T09:22:24;4.65;;;2.97;;
65656;SDS011;57397;50.096;14.404;2023-01-09T09:24:50;5.22;;;3.15;;
65656;SDS011;57397;50.096;14.404;2023-01-09T09:27:16;4.60;;;3.40;;
65656;SDS011;57397;50.096;14.404;2023-01-09T09:29:41;5.57;;;3.50;;
65656;SDS011;57397;50.096;14.404;2023-01-09T09:32:07;5.03;;;3.10;;
65656;SDS011;57397;50.096;14.404;2023-01-09T09:34:33;4.28;;;3.20;;
65656;SDS011;57397;50.096;14.404;2023-01-09T09:36:58;4.97;;;2.95;;
65656;SDS011;57397;50.096;14.404;2023-01-09T09:39:24;4.80;;;3.05;;
65656;SDS011;57397;50.096;14.404;2023-01-09T09:44:40;5.05;;;3.13;;
65656;SDS011;57397;50.096;14.404;2023-01-09T09:50:21;3.78;;;3.03;;
65656;SDS011;57397;50.096;14.404;2023-01-09T09:55:40;4.80;;;2.92;;
65656;SDS011;57397;50.096;14.404;2023-01-09T09:58:52;5.18;;;3.28;;
65656;SDS011;57397;50.096;14.404;2023-01-09T10:03:38;4.28;;;3.00;;
65656;SDS011;57397;50.096;14.404;2023-01-09T10:06:25;4.22;;;2.88;;
65656;SDS011;57397;50.096;14.404;2023-01-09T10:11:59;4.72;;;2.90;;
65656;SDS011;57397;50.096;14.404;2023-01-09T10:14:31;5.05;;;3.03;;
65656;SDS011;57397;50.096;14.404;2023-01-09T10:32:29;4.47;;;2.92;;
65656;SDS011;57397;50.096;14.404;2023-01-09T10:37:58;3.65;;;2.72;;
65656;SDS011;57397;50.096;14.404;2023-01-09T10:40:30;3.47;;;2.40;;
65656;SDS011;57397;50.096;14.404;2023-01-09T10:45:43;3.75;;;2.72;;
65656;SDS011;57397;50.096;14.404;2023-01-09T10:50:59;3.55;;;2.30;;
65656;SDS011;57397;50.096;14.404;2023-01-09T10:53:28;3.50;;;2.20;;
65656;SDS011;57397;50.096;14.404;2023-01-09T10:56:00;3.63;;;2.30;;
65656;SDS011;57397;50.096;14.404;2023-01-09T10:58:32;2.90;;;2.20;;
65656;SDS011;57397;50.096;14.404;2023-01-09T11:00:58;3.60;;;2.22;;
65656;SDS011;57397;50.096;14.404;2023-01-09T11:03:26;3.10;;;2.03;;
65656;SDS011;57397;50.096;14.404;2023-01-09T11:05:53;3.70;;;2.20;;
65656;SDS011;57397;50.096;14.404;2023-01-09T11:11:06;2.83;;;1.95;;
65656;SDS011;57397;50.096;14.404;2023-01-09T11:13:33;3.20;;;2.15;;
65656;SDS011;57397;50.096;14.404;2023-01-09T11:18:29;2.45;;;1.98;;
65656;SDS011;57397;50.096;14.404;2023-01-09T11:21:00;3.80;;;2.20;;
65656;SDS011;57397;50.096;14.404;2023-01-09T11:23:39;2.90;;;1.65;;
65656;SDS011;57397;50.096;14.404;2023-01-09T11:26:05;2.58;;;1.88;;
65656;SDS011;57397;50.096;14.404;2023-01-09T11:28:30;2.40;;;1.67;;
65656;SDS011;57397;50.096;14.404;2023-01-09T11:30:57;2.85;;;1.70;;
65656;SDS011;57397;50.096;14.404;2023-01-09T11:33:25;3.15;;;1.92;;
65656;SDS011;57397;50.096;14.404;2023-01-09T11:35:55;2.50;;;1.67;;
65656;SDS011;57397;50.096;14.404;2023-01-09T11:38:26;2.40;;;1.60;;
65656;SDS011;57397;50.096;14.404;2023-01-09T11:40:53;2.88;;;1.70;;
65656;SDS011;57397;50.096;14.404;2023-01-09T11:43:37;2.33;;;1.50;;
65656;SDS011;57397;50.096;14.404;2023-01-09T11:46:04;2.13;;;1.50;;
65656;SDS011;57397;50.096;14.404;2023-01-09T11:48:33;2.25;;;1.50;;
65656;SDS011;57397;50.096;14.404;2023-01-09T11:51:31;2.58;;;1.55;;
65656;SDS011;57397;50.096;14.404;2023-01-09T11:56:40;2.00;;;1.30;;
65656;SDS011;57397;50.096;14.404;2023-01-09T11:59:10;2.67;;;1.58;;
65656;SDS011;57397;50.096;14.404;2023-01-09T12:01:47;2.17;;;1.30;;
65656;SDS011;57397;50.096;14.404;2023-01-09T12:04:24;1.95;;;1.30;;
65656;SDS011;57397;50.096;14.404;2023-01-09T12:10:01;2.38;;;1.30;;
65656;SDS011;57397;50.096;14.404;2023-01-09T12:15:33;1.58;;;1.10;;
65656;SDS011;57397;50.096;14.404;2023-01-09T12:18:07;2.13;;;1.30;;
65656;SDS011;57397;50.096;14.404;2023-01-09T12:32:12;1.95;;;1.20;;
65656;SDS011;57397;50.096;14.404;2023-01-09T12:37:16;2.00;;;1.30;;
65656;SDS011;57397;50.096;14.404;2023-01-09T12:48:36;1.55;;;1.05;;
65656;SDS011;57397;50.096;14.404;2023-01-09T12:51:19;1.70;;;1.08;;
65656;SDS011;57397;50.096;14.404;2023-01-09T12:54:04;1.65;;;1.15;;
65656;SDS011;57397;50.096;14.404;2023-01-09T12:57:17;2.10;;;1.15;;
65656;SDS011;57397;50.096;14.404;2023-01-09T13:01:58;2.08;;;1.25;;
65656;SDS011;57397;50.096;14.404;2023-01-09T13:04:30;1.60;;;1.08;;
65656;SDS011;57397;50.096;14.404;2023-01-09T13:07:00;1.50;;;1.05;;
65656;SDS011;57397;50.096;14.404;2023-01-09T13:12:06;1.50;;;1.00;;
65656;SDS011;57397;50.096;14.404;2023-01-09T13:20:03;1.88;;;1.00;;
65656;SDS011;57397;50.096;14.404;2023-01-09T13:22:47;1.43;;;0.97;;
65656;SDS011;57397;50.096;14.404;2023-01-09T13:27:56;2.35;;;1.15;;
65656;SDS011;57397;50.096;14.404;2023-01-09T13:30:31;3.08;;;1.30;;
65656;SDS011;57397;50.096;14.404;2023-01-09T13:33:13;2.08;;;1.10;;
65656;SDS011;57397;50.096;14.404;2023-01-09T13:35:47;1.73;;;0.90;;
65656;SDS011;57397;50.096;14.404;2023-01-09T13:38:21;2.72;;;1.13;;
65656;SDS011;57397;50.096;14.404;2023-01-09T13:41:11;1.70;;;1.00;;
65656;SDS011;57397;50.096;14.404;2023-01-09T13:43:58;1.48;;;1.00;;
65656;SDS011;57397;50.096;14.404;2023-01-09T13:46:34;1.83;;;0.90;;
65656;SDS011;57397;50.096;14.404;2023-01-09T13:49:04;1.60;;;1.00;;
65656;SDS011;57397;50.096;14.404;2023-01-09T13:54:08;1.67;;;1.30;;
65656;SDS011;57397;50.096;14.404;2023-01-09T13:59:37;1.65;;;1.08;;
65656;SDS011;57397;50.096;14.404;2023-01-09T14:02:03;1.88;;;1.10;;
65656;SDS011;57397;50.096;14.404;2023-01-09T14:04:58;2.53;;;1.20;;
65656;SDS011;57397;50.096;14.404;2023-01-09T14:07:28;2.03;;;1.20;;
65656;SDS011;57397;50.096;14.404;2023-01-09T14:09:59;1.90;;;1.10;;
65656;SDS011;57397;50.096;14.404;2023-01-09T14:12:48;2.22;;;1.05;;
65656;SDS011;57397;50.096;14.404;2023-01-09T14:17:56;2.08;;;1.10;;
65656;SDS011;57397;50.096;14.404;2023-01-09T14:20:31;1.77;;;1.00;;
65656;SDS011;57397;50.096;14.404;2023-01-09T14:22:59;2.65;;;1.10;;
65656;SDS011;57397;50.096;14.404;2023-01-09T14:25:27;1.70;;;1.05;;
65656;SDS011;57397;50.096;14.404;2023-01-09T14:35:57;1.88;;;1.10;;
65656;SDS011;57397;50.096;14.404;2023-01-09T14:38:52;2.03;;;1.10;;
65656;SDS011;57397;50.096;14.404;2023-01-09T14:41:28;1.85;;;1.10;;
65656;SDS011;57397;50.096;14.404;2023-01-09T14:50:02;2.42;;;1.33;;
65656;SDS011;57397;50.096;14.404;2023-01-09T14:52:52;2.22;;;1.10;;
65656;SDS011;57397;50.096;14.404;2023-01-09T14:58:28;2.38;;;1.17;;
65656;SDS011;57397;50.096;14.404;2023-01-09T15:01:05;1.58;;;0.98;;
65656;SDS011;57397;50.096;14.404;2023-01-09T15:03:39;1.20;;;1.00;;
65656;SDS011;57397;50.096;14.404;2023-01-09T15:06:12;1.73;;;1.13;;
65656;SDS011;57397;50.096;14.404;2023-01-09T15:08:44;1.70;;;0.90;;
65656;SDS011;57397;50.096;14.404;2023-01-09T15:11:10;2.13;;;1.08;;
65656;SDS011;57397;50.096;14.404;2023-01-09T15:13:44;2.03;;;1.00;;
65656;SDS011;57397;50.096;14.404;2023-01-09T15:16:18;1.90;;;1.02;;
65656;SDS011;57397;50.096;14.404;2023-01-09T15:18:46;2.03;;;0.90;;
65656;SDS011;57397;50.096;14.404;2023-01-09T15:21:18;1.85;;;1.00;;
65656;SDS011;57397;50.096;14.404;2023-01-09T15:23:46;2.35;;;1.10;;
65656;SDS011;57397;50.096;14.404;2023-01-09T15:26:13;2.83;;;1.20;;
65656;SDS011;57397;50.096;14.404;2023-01-09T15:28:50;2.45;;;1.20;;
65656;SDS011;57397;50.096;14.404;2023-01-09T15:31:18;2.75;;;1.42;;
65656;SDS011;57397;50.096;14.404;2023-01-09T15:33:45;1.83;;;1.13;;
65656;SDS011;57397;50.096;14.404;2023-01-09T15:36:12;2.35;;;1.30;;
65656;SDS011;57397;50.096;14.404;2023-01-09T15:38:57;2.50;;;1.48;;
65656;SDS011;57397;50.096;14.404;2023-01-09T15:41:29;3.22;;;1.60;;
65656;SDS011;57397;50.096;14.404;2023-01-09T15:44:22;4.65;;;1.90;;
65656;SDS011;57397;50.096;14.404;2023-01-09T15:46:50;4.13;;;2.10;;
65656;SDS011;57397;50.096;14.404;2023-01-09T15:49:16;4.22;;;2.13;;
65656;SDS011;57397;50.096;14.404;2023-01-09T15:51:44;5.38;;;2.30;;
65656;SDS011;57397;50.096;14.404;2023-01-09T15:54:14;6.10;;;2.63;;
65656;SDS011;57397;50.096;14.404;2023-01-09T15:56:41;4.63;;;2.38;;
65656;SDS011;57397;50.096;14.404;2023-01-09T15:59:24;3.67;;;2.10;;
65656;SDS011;57397;50.096;14.404;2023-01-09T16:02:09;4.15;;;2.42;;
65656;SDS011;57397;50.096;14.404;2023-01-09T16:04:55;4.18;;;2.30;;
65656;SDS011;57397;50.096;14.404;2023-01-09T16:07:21;3.38;;;2.08;;
65656;SDS011;57397;50.096;14.404;2023-01-09T16:09:47;3.42;;;2.20;;
65656;SDS011;57397;50.096;14.404;2023-01-09T16:12:23;3.10;;;1.90;;
65656;SDS011;57397;50.096;14.404;2023-01-09T16:14:51;3.22;;;1.60;;
65656;SDS011;57397;50.096;14.404;2023-01-09T16:17:19;3.22;;;1.90;;
65656;SDS011;57397;50.096;14.404;2023-01-09T16:24:47;3.58;;;1.40;;
65656;SDS011;57397;50.096;14.404;2023-01-09T16:29:45;2.53;;;1.50;;
65656;SDS011;57397;50.096;14.404;2023-01-09T16:32:17;2.78;;;1.27;;
65656;SDS011;57397;50.096;14.404;2023-01-09T16:34:45;2.80;;;1.40;;
65656;SDS011;57397;50.096;14.404;2023-01-09T16:37:22;2.35;;;1.30;;
65656;SDS011;57397;50.096;14.404;2023-01-09T16:42:32;2.90;;;1.45;;
65656;SDS011;57397;50.096;14.404;2023-01-09T16:45:16;4.80;;;2.30;;
65656;SDS011;57397;50.096;14.404;2023-01-09T16:47:41;4.47;;;2.10;;
65656;SDS011;57397;50.096;14.404;2023-01-09T16:50:09;4.72;;;2.00;;
65656;SDS011;57397;50.096;14.404;2023-01-09T16:52:36;4.47;;;2.03;;
65656;SDS011;57397;50.096;14.404;2023-01-09T16:55:01;5.00;;;2.10;;
65656;SDS011;57397;50.096;14.404;2023-01-09T16:57:27;3.92;;;2.20;;
65656;SDS011;57397;50.096;14.404;2023-01-09T16:59:52;5.32;;;2.53;;
65656;SDS011;57397;50.096;14.404;2023-01-09T17:02:20;6.18;;;2.67;;
65656;SDS011;57397;50.096;14.404;2023-01-09T17:04:46;7.20;;;2.90;;
65656;SDS011;57397;50.096;14.404;2023-01-09T17:07:15;5.55;;;2.85;;
65656;SDS011;57397;50.096;14.404;2023-01-09T17:09:41;5.43;;;2.83;;
65656;SDS011;57397;50.096;14.404;2023-01-09T17:12:14;5.88;;;2.47;;
65656;SDS011;57397;50.096;14.404;2023-01-09T17:14:41;6.45;;;3.33;;
65656;SDS011;57397;50.096;14.404;2023-01-09T17:17:10;7.43;;;3.35;;
65656;SDS011;57397;50.096;14.404;2023-01-09T17:19:38;7.63;;;3.30;;
65656;SDS011;57397;50.096;14.404;2023-01-09T17:22:05;6.90;;;3.15;;
65656;SDS011;57397;50.096;14.404;2023-01-09T17:24:31;6.75;;;3.63;;
65656;SDS011;57397;50.096;14.404;2023-01-09T17:27:16;8.02;;;3.78;;